sensor_id;sensor_type;location;lat;lon;timestamp;temperature;humidity
44537;DHT22;30245;51.966;6.292;2022-07-23T00:01:59;23.60;52.70
44537;DHT22;30245;51.966;6.292;2022-07-23T00:04:25;23.60;52.80
44537;DHT22;30245;51.966;6.292;2022-07-23T00:06:50;23.60;52.90
44537;DHT22;30245;51.966;6.292;2022-07-23T00:09:16;23.50;52.90
44537;DHT22;30245;51.966;6.292;2022-07-23T00:11:42;23.50;53.00
44537;DHT22;30245;51.966;6.292;2022-07-23T00:14:07;23.50;53.00
44537;DHT22;30245;51.966;6.292;2022-07-23T00:16:33;23.50;53.00
44537;DHT22;30245;51.966;6.292;2022-07-23T00:18:59;23.50;53.00
44537;DHT22;30245;51.966;6.292;2022-07-23T00:21:26;23.50;53.00
44537;DHT22;30245;51.966;6.292;2022-07-23T00:23:52;23.50;53.10
44537;DHT22;30245;51.966;6.292;2022-07-23T00:26:18;23.50;53.10
44537;DHT22;30245;51.966;6.292;2022-07-23T00:28:43;23.50;53.10
44537;DHT22;30245;51.966;6.292;2022-07-23T00:31:09;23.40;53.10
44537;DHT22;30245;51.966;6.292;2022-07-23T00:33:35;23.40;53.20
44537;DHT22;30245;51.966;6.292;2022-07-23T00:36:00;23.30;53.20
44537;DHT22;30245;51.966;6.292;2022-07-23T00:38:26;23.30;53.30
44537;DHT22;30245;51.966;6.292;2022-07-23T00:40:52;23.30;53.30
44537;DHT22;30245;51.966;6.292;2022-07-23T00:43:20;23.30;53.40
44537;DHT22;30245;51.966;6.292;2022-07-23T00:45:46;23.20;53.50
44537;DHT22;30245;51.966;6.292;2022-07-23T00:48:12;23.20;53.50
44537;DHT22;30245;51.966;6.292;2022-07-23T00:50:37;23.20;53.50
44537;DHT22;30245;51.966;6.292;2022-07-23T00:53:04;23.20;53.60
44537;DHT22;30245;51.966;6.292;2022-07-23T00:55:30;23.20;53.80
44537;DHT22;30245;51.966;6.292;2022-07-23T00:57:56;23.10;53.70
44537;DHT22;30245;51.966;6.292;2022-07-23T01:00:22;23.10;53.70
44537;DHT22;30245;51.966;6.292;2022-07-23T01:02:48;23.10;53.80
44537;DHT22;30245;51.966;6.292;2022-07-23T01:05:14;23.10;53.80
44537;DHT22;30245;51.966;6.292;2022-07-23T01:07:41;23.00;53.80
44537;DHT22;30245;51.966;6.292;2022-07-23T01:10:08;23.00;53.90
44537;DHT22;30245;51.966;6.292;2022-07-23T01:12:53;22.90;53.90
44537;DHT22;30245;51.966;6.292;2022-07-23T01:15:19;22.90;54.00
44537;DHT22;30245;51.966;6.292;2022-07-23T01:17:45;22.80;54.10
44537;DHT22;30245;51.966;6.292;2022-07-23T01:20:11;22.80;54.20
44537;DHT22;30245;51.966;6.292;2022-07-23T01:22:36;22.70;54.30
44537;DHT22;30245;51.966;6.292;2022-07-23T01:25:02;22.70;54.40
44537;DHT22;30245;51.966;6.292;2022-07-23T01:27:28;22.60;54.30
44537;DHT22;30245;51.966;6.292;2022-07-23T01:29:55;22.60;54.40
44537;DHT22;30245;51.966;6.292;2022-07-23T01:32:22;22.60;54.50
44537;DHT22;30245;51.966;6.292;2022-07-23T01:34:47;22.60;54.30
44537;DHT22;30245;51.966;6.292;2022-07-23T01:37:13;22.50;54.20
44537;DHT22;30245;51.966;6.292;2022-07-23T01:39:39;22.50;54.40
44537;DHT22;30245;51.966;6.292;2022-07-23T01:42:05;22.50;54.50
44537;DHT22;30245;51.966;6.292;2022-07-23T01:44:31;22.50;54.60
44537;DHT22;30245;51.966;6.292;2022-07-23T01:46:56;22.40;54.60
44537;DHT22;30245;51.966;6.292;2022-07-23T01:49:22;22.40;54.70
44537;DHT22;30245;51.966;6.292;2022-07-23T01:51:47;22.40;54.80
44537;DHT22;30245;51.966;6.292;2022-07-23T01:54:30;22.30;54.90
44537;DHT22;30245;51.966;6.292;2022-07-23T01:56:56;22.30;54.90
44537;DHT22;30245;51.966;6.292;2022-07-23T01:59:22;22.30;54.90
44537;DHT22;30245;51.966;6.292;2022-07-23T02:01:49;22.30;55.00
44537;DHT22;30245;51.966;6.292;2022-07-23T02:04:18;22.30;55.00
44537;DHT22;30245;51.966;6.292;2022-07-23T02:06:44;22.30;55.10
44537;DHT22;30245;51.966;6.292;2022-07-23T02:09:10;22.20;55.00
44537;DHT22;30245;51.966;6.292;2022-07-23T02:11:35;22.20;55.10
44537;DHT22;30245;51.966;6.292;2022-07-23T02:14:01;22.20;55.10
44537;DHT22;30245;51.966;6.292;2022-07-23T02:16:26;22.10;55.10
44537;DHT22;30245;51.966;6.292;2022-07-23T02:18:52;22.10;55.20
44537;DHT22;30245;51.966;6.292;2022-07-23T02:21:18;22.10;55.20
44537;DHT22;30245;51.966;6.292;2022-07-23T02:23:43;22.10;55.30
44537;DHT22;30245;51.966;6.292;2022-07-23T02:26:09;22.10;55.30
44537;DHT22;30245;51.966;6.292;2022-07-23T02:28:34;22.10;55.30
44537;DHT22;30245;51.966;6.292;2022-07-23T02:31:00;22.00;55.40
44537;DHT22;30245;51.966;6.292;2022-07-23T02:33:26;21.90;55.50
44537;DHT22;30245;51.966;6.292;2022-07-23T02:35:51;21.90;55.60
44537;DHT22;30245;51.966;6.292;2022-07-23T02:38:17;21.90;55.60
44537;DHT22;30245;51.966;6.292;2022-07-23T02:40:43;21.90;55.70
44537;DHT22;30245;51.966;6.292;2022-07-23T02:43:08;21.90;55.70
44537;DHT22;30245;51.966;6.292;2022-07-23T02:45:34;21.80;55.70
44537;DHT22;30245;51.966;6.292;2022-07-23T02:48:00;21.90;55.70
44537;DHT22;30245;51.966;6.292;2022-07-23T02:50:25;21.80;55.60
44537;DHT22;30245;51.966;6.292;2022-07-23T02:52:51;21.80;55.60
44537;DHT22;30245;51.966;6.292;2022-07-23T02:55:16;21.80;55.60
44537;DHT22;30245;51.966;6.292;2022-07-23T02:57:42;21.80;55.70
44537;DHT22;30245;51.966;6.292;2022-07-23T03:00:08;21.70;55.80
44537;DHT22;30245;51.966;6.292;2022-07-23T03:02:34;21.70;55.90
44537;DHT22;30245;51.966;6.292;2022-07-23T03:05:00;21.70;55.90
44537;DHT22;30245;51.966;6.292;2022-07-23T03:07:25;21.60;55.90
44537;DHT22;30245;51.966;6.292;2022-07-23T03:09:51;21.70;56.00
44537;DHT22;30245;51.966;6.292;2022-07-23T03:12:17;21.60;56.00
44537;DHT22;30245;51.966;6.292;2022-07-23T03:14:42;21.60;56.00
44537;DHT22;30245;51.966;6.292;2022-07-23T03:17:09;21.60;56.10
44537;DHT22;30245;51.966;6.292;2022-07-23T03:19:35;21.60;56.10
44537;DHT22;30245;51.966;6.292;2022-07-23T03:22:02;21.60;56.20
44537;DHT22;30245;51.966;6.292;2022-07-23T03:24:28;21.50;56.10
44537;DHT22;30245;51.966;6.292;2022-07-23T03:27:12;21.60;56.10
44537;DHT22;30245;51.966;6.292;2022-07-23T03:29:38;21.60;56.10
44537;DHT22;30245;51.966;6.292;2022-07-23T03:32:04;21.60;56.10
44537;DHT22;30245;51.966;6.292;2022-07-23T03:34:30;21.60;56.20
44537;DHT22;30245;51.966;6.292;2022-07-23T03:36:55;21.50;56.10
44537;DHT22;30245;51.966;6.292;2022-07-23T03:39:21;21.50;56.20
44537;DHT22;30245;51.966;6.292;2022-07-23T03:41:46;21.50;56.30
44537;DHT22;30245;51.966;6.292;2022-07-23T03:44:12;21.50;56.30
44537;DHT22;30245;51.966;6.292;2022-07-23T03:46:38;21.40;56.20
44537;DHT22;30245;51.966;6.292;2022-07-23T03:49:03;21.40;56.30
44537;DHT22;30245;51.966;6.292;2022-07-23T03:51:29;21.30;56.30
44537;DHT22;30245;51.966;6.292;2022-07-23T03:53:55;21.30;56.40
44537;DHT22;30245;51.966;6.292;2022-07-23T03:56:21;21.30;56.50
44537;DHT22;30245;51.966;6.292;2022-07-23T03:58:47;21.30;56.50
44537;DHT22;30245;51.966;6.292;2022-07-23T04:01:13;21.20;56.50
44537;DHT22;30245;51.966;6.292;2022-07-23T04:03:38;21.20;56.50
44537;DHT22;30245;51.966;6.292;2022-07-23T04:06:05;21.20;56.60
44537;DHT22;30245;51.966;6.292;2022-07-23T04:08:31;21.10;56.70
44537;DHT22;30245;51.966;6.292;2022-07-23T04:10:56;21.10;56.70
44537;DHT22;30245;51.966;6.292;2022-07-23T04:13:22;21.10;56.80
44537;DHT22;30245;51.966;6.292;2022-07-23T04:15:48;21.10;56.80
44537;DHT22;30245;51.966;6.292;2022-07-23T04:18:14;21.10;56.80
44537;DHT22;30245;51.966;6.292;2022-07-23T04:20:44;21.20;56.80
44537;DHT22;30245;51.966;6.292;2022-07-23T04:23:10;21.10;57.30
44537;DHT22;30245;51.966;6.292;2022-07-23T04:25:36;21.10;56.70
44537;DHT22;30245;51.966;6.292;2022-07-23T04:28:02;21.20;56.70
44537;DHT22;30245;51.966;6.292;2022-07-23T04:30:27;21.20;56.70
44537;DHT22;30245;51.966;6.292;2022-07-23T04:32:53;21.20;56.70
44537;DHT22;30245;51.966;6.292;2022-07-23T04:35:19;21.20;56.80
44537;DHT22;30245;51.966;6.292;2022-07-23T04:37:45;21.20;56.70
44537;DHT22;30245;51.966;6.292;2022-07-23T04:40:12;21.20;56.70
44537;DHT22;30245;51.966;6.292;2022-07-23T04:42:38;21.20;56.70
44537;DHT22;30245;51.966;6.292;2022-07-23T04:45:05;21.20;56.90
44537;DHT22;30245;51.966;6.292;2022-07-23T04:47:30;21.20;56.90
44537;DHT22;30245;51.966;6.292;2022-07-23T04:49:57;21.20;57.00
44537;DHT22;30245;51.966;6.292;2022-07-23T04:52:23;21.20;57.00
44537;DHT22;30245;51.966;6.292;2022-07-23T04:54:49;21.20;57.00
44537;DHT22;30245;51.966;6.292;2022-07-23T04:57:15;21.20;57.00
44537;DHT22;30245;51.966;6.292;2022-07-23T04:59:40;21.30;57.00
44537;DHT22;30245;51.966;6.292;2022-07-23T05:02:06;21.30;56.90
44537;DHT22;30245;51.966;6.292;2022-07-23T05:04:32;21.40;56.90
44537;DHT22;30245;51.966;6.292;2022-07-23T05:06:58;21.40;56.90
44537;DHT22;30245;51.966;6.292;2022-07-23T05:09:24;21.40;56.80
44537;DHT22;30245;51.966;6.292;2022-07-23T05:11:49;21.50;56.70
44537;DHT22;30245;51.966;6.292;2022-07-23T05:14:15;21.50;57.30
44537;DHT22;30245;51.966;6.292;2022-07-23T05:16:41;21.50;56.70
44537;DHT22;30245;51.966;6.292;2022-07-23T05:19:06;21.50;56.70
44537;DHT22;30245;51.966;6.292;2022-07-23T05:21:32;21.60;56.60
44537;DHT22;30245;51.966;6.292;2022-07-23T05:23:58;21.60;56.60
44537;DHT22;30245;51.966;6.292;2022-07-23T05:26:23;21.60;56.60
44537;DHT22;30245;51.966;6.292;2022-07-23T05:28:49;21.60;57.20
44537;DHT22;30245;51.966;6.292;2022-07-23T05:31:15;21.60;56.60
44537;DHT22;30245;51.966;6.292;2022-07-23T05:33:41;21.50;56.70
44537;DHT22;30245;51.966;6.292;2022-07-23T05:36:07;21.50;56.80
44537;DHT22;30245;51.966;6.292;2022-07-23T05:38:33;21.50;56.80
44537;DHT22;30245;51.966;6.292;2022-07-23T05:40:59;21.60;56.80
44537;DHT22;30245;51.966;6.292;2022-07-23T05:43:25;21.60;56.80
44537;DHT22;30245;51.966;6.292;2022-07-23T05:45:51;21.60;56.80
44537;DHT22;30245;51.966;6.292;2022-07-23T05:48:17;21.60;56.70
44537;DHT22;30245;51.966;6.292;2022-07-23T05:50:42;21.60;56.70
44537;DHT22;30245;51.966;6.292;2022-07-23T05:53:08;21.60;56.60
44537;DHT22;30245;51.966;6.292;2022-07-23T05:55:34;21.70;56.70
44537;DHT22;30245;51.966;6.292;2022-07-23T05:58:00;21.80;56.60
44537;DHT22;30245;51.966;6.292;2022-07-23T06:00:26;21.80;56.40
44537;DHT22;30245;51.966;6.292;2022-07-23T06:02:52;21.80;56.30
44537;DHT22;30245;51.966;6.292;2022-07-23T06:05:18;21.90;56.30
44537;DHT22;30245;51.966;6.292;2022-07-23T06:07:44;22.00;56.30
44537;DHT22;30245;51.966;6.292;2022-07-23T06:10:09;22.00;56.10
44537;DHT22;30245;51.966;6.292;2022-07-23T06:12:36;22.10;55.90
44537;DHT22;30245;51.966;6.292;2022-07-23T06:15:02;22.10;55.80
44537;DHT22;30245;51.966;6.292;2022-07-23T06:17:28;22.10;55.70
44537;DHT22;30245;51.966;6.292;2022-07-23T06:19:54;22.20;55.80
44537;DHT22;30245;51.966;6.292;2022-07-23T06:22:20;22.30;55.60
44537;DHT22;30245;51.966;6.292;2022-07-23T06:24:46;22.40;55.50
44537;DHT22;30245;51.966;6.292;2022-07-23T06:27:12;22.40;55.40
44537;DHT22;30245;51.966;6.292;2022-07-23T06:29:38;22.50;55.30
44537;DHT22;30245;51.966;6.292;2022-07-23T06:32:04;22.50;55.10
44537;DHT22;30245;51.966;6.292;2022-07-23T06:34:29;22.60;55.10
44537;DHT22;30245;51.966;6.292;2022-07-23T06:36:55;22.60;54.90
44537;DHT22;30245;51.966;6.292;2022-07-23T06:39:21;22.60;54.90
44537;DHT22;30245;51.966;6.292;2022-07-23T06:41:46;22.60;54.80
44537;DHT22;30245;51.966;6.292;2022-07-23T06:44:12;22.60;54.80
44537;DHT22;30245;51.966;6.292;2022-07-23T06:46:38;22.70;54.80
44537;DHT22;30245;51.966;6.292;2022-07-23T06:49:03;22.70;54.70
44537;DHT22;30245;51.966;6.292;2022-07-23T06:51:30;22.80;54.70
44537;DHT22;30245;51.966;6.292;2022-07-23T06:53:56;22.90;54.60
44537;DHT22;30245;51.966;6.292;2022-07-23T06:56:21;23.00;54.40
44537;DHT22;30245;51.966;6.292;2022-07-23T06:58:47;23.00;54.30
44537;DHT22;30245;51.966;6.292;2022-07-23T07:01:13;23.10;54.30
44537;DHT22;30245;51.966;6.292;2022-07-23T07:03:39;23.10;54.10
44537;DHT22;30245;51.966;6.292;2022-07-23T07:06:04;23.20;54.00
44537;DHT22;30245;51.966;6.292;2022-07-23T07:08:30;23.20;53.90
44537;DHT22;30245;51.966;6.292;2022-07-23T07:10:56;23.20;53.70
44537;DHT22;30245;51.966;6.292;2022-07-23T07:13:21;23.30;53.90
44537;DHT22;30245;51.966;6.292;2022-07-23T07:15:47;23.30;53.80
44537;DHT22;30245;51.966;6.292;2022-07-23T07:18:13;23.40;53.70
44537;DHT22;30245;51.966;6.292;2022-07-23T07:20:38;23.40;53.30
44537;DHT22;30245;51.966;6.292;2022-07-23T07:23:04;23.50;53.00
44537;DHT22;30245;51.966;6.292;2022-07-23T07:25:29;23.60;52.80
44537;DHT22;30245;51.966;6.292;2022-07-23T07:27:55;23.70;52.30
44537;DHT22;30245;51.966;6.292;2022-07-23T07:30:21;23.70;52.10
44537;DHT22;30245;51.966;6.292;2022-07-23T07:32:46;23.70;52.10
44537;DHT22;30245;51.966;6.292;2022-07-23T07:35:12;23.80;52.00
44537;DHT22;30245;51.966;6.292;2022-07-23T07:37:38;23.90;51.70
44537;DHT22;30245;51.966;6.292;2022-07-23T07:40:04;23.90;51.60
44537;DHT22;30245;51.966;6.292;2022-07-23T07:42:29;24.10;51.40
44537;DHT22;30245;51.966;6.292;2022-07-23T07:44:55;24.10;51.20
44537;DHT22;30245;51.966;6.292;2022-07-23T07:47:21;24.20;50.90
44537;DHT22;30245;51.966;6.292;2022-07-23T07:49:47;24.30;50.70
44537;DHT22;30245;51.966;6.292;2022-07-23T07:52:12;24.40;50.70
44537;DHT22;30245;51.966;6.292;2022-07-23T07:54:38;24.50;50.40
44537;DHT22;30245;51.966;6.292;2022-07-23T07:57:03;24.50;50.10
44537;DHT22;30245;51.966;6.292;2022-07-23T07:59:29;24.50;49.80
44537;DHT22;30245;51.966;6.292;2022-07-23T08:01:55;24.50;49.90
44537;DHT22;30245;51.966;6.292;2022-07-23T08:04:20;24.50;49.80
44537;DHT22;30245;51.966;6.292;2022-07-23T08:06:46;24.60;49.80
44537;DHT22;30245;51.966;6.292;2022-07-23T08:09:12;24.60;49.50
44537;DHT22;30245;51.966;6.292;2022-07-23T08:11:38;24.70;49.40
44537;DHT22;30245;51.966;6.292;2022-07-23T08:14:03;24.80;49.10
44537;DHT22;30245;51.966;6.292;2022-07-23T08:16:29;24.80;48.90
44537;DHT22;30245;51.966;6.292;2022-07-23T08:18:55;24.90;48.70
44537;DHT22;30245;51.966;6.292;2022-07-23T08:21:20;25.00;48.50
44537;DHT22;30245;51.966;6.292;2022-07-23T08:23:46;25.00;48.50
44537;DHT22;30245;51.966;6.292;2022-07-23T08:26:12;25.10;48.40
44537;DHT22;30245;51.966;6.292;2022-07-23T08:28:38;25.30;48.20
44537;DHT22;30245;51.966;6.292;2022-07-23T08:31:04;25.40;47.80
44537;DHT22;30245;51.966;6.292;2022-07-23T08:33:31;25.50;47.40
44537;DHT22;30245;51.966;6.292;2022-07-23T08:35:57;25.70;47.30
44537;DHT22;30245;51.966;6.292;2022-07-23T08:38:23;25.80;46.90
44537;DHT22;30245;51.966;6.292;2022-07-23T08:40:52;25.90;46.70
44537;DHT22;30245;51.966;6.292;2022-07-23T08:43:20;25.90;46.40
44537;DHT22;30245;51.966;6.292;2022-07-23T08:45:49;25.90;46.50
44537;DHT22;30245;51.966;6.292;2022-07-23T08:48:17;26.00;46.40
44537;DHT22;30245;51.966;6.292;2022-07-23T08:50:46;26.00;46.20
44537;DHT22;30245;51.966;6.292;2022-07-23T08:53:12;26.10;46.10
44537;DHT22;30245;51.966;6.292;2022-07-23T08:55:38;26.20;46.10
44537;DHT22;30245;51.966;6.292;2022-07-23T08:58:04;26.20;45.80
44537;DHT22;30245;51.966;6.292;2022-07-23T09:00:31;26.30;45.90
44537;DHT22;30245;51.966;6.292;2022-07-23T09:02:57;26.30;45.80
44537;DHT22;30245;51.966;6.292;2022-07-23T09:05:23;26.30;45.90
44537;DHT22;30245;51.966;6.292;2022-07-23T09:08:08;26.40;45.80
44537;DHT22;30245;51.966;6.292;2022-07-23T09:10:44;26.40;45.80
44537;DHT22;30245;51.966;6.292;2022-07-23T09:13:35;26.40;45.70
44537;DHT22;30245;51.966;6.292;2022-07-23T09:16:13;26.50;45.60
44537;DHT22;30245;51.966;6.292;2022-07-23T09:26:18;26.60;44.90
44537;DHT22;30245;51.966;6.292;2022-07-23T09:28:52;26.70;45.00
44537;DHT22;30245;51.966;6.292;2022-07-23T09:31:20;26.70;44.80
44537;DHT22;30245;51.966;6.292;2022-07-23T09:33:45;26.70;44.80
44537;DHT22;30245;51.966;6.292;2022-07-23T09:36:11;26.70;44.60
44537;DHT22;30245;51.966;6.292;2022-07-23T09:38:48;26.80;44.70
44537;DHT22;30245;51.966;6.292;2022-07-23T09:41:14;26.90;44.50
44537;DHT22;30245;51.966;6.292;2022-07-23T09:43:40;27.00;44.30
44537;DHT22;30245;51.966;6.292;2022-07-23T09:46:27;27.10;44.10
44537;DHT22;30245;51.966;6.292;2022-07-23T09:48:54;27.20;44.00
44537;DHT22;30245;51.966;6.292;2022-07-23T09:51:23;27.30;43.90
44537;DHT22;30245;51.966;6.292;2022-07-23T09:54:04;27.40;43.70
44537;DHT22;30245;51.966;6.292;2022-07-23T09:56:31;27.50;43.50
44537;DHT22;30245;51.966;6.292;2022-07-23T09:59:00;27.60;43.10
44537;DHT22;30245;51.966;6.292;2022-07-23T10:01:38;27.70;42.80
44537;DHT22;30245;51.966;6.292;2022-07-23T10:04:04;27.80;42.60
44537;DHT22;30245;51.966;6.292;2022-07-23T10:06:31;27.90;42.30
44537;DHT22;30245;51.966;6.292;2022-07-23T10:08:58;28.00;42.10
44537;DHT22;30245;51.966;6.292;2022-07-23T10:11:26;28.10;42.00
44537;DHT22;30245;51.966;6.292;2022-07-23T10:13:53;28.20;41.70
44537;DHT22;30245;51.966;6.292;2022-07-23T10:16:28;28.30;42.20
44537;DHT22;30245;51.966;6.292;2022-07-23T10:18:54;28.30;41.40
44537;DHT22;30245;51.966;6.292;2022-07-23T10:21:39;28.50;41.50
44537;DHT22;30245;51.966;6.292;2022-07-23T10:37:38;29.20;40.60
44537;DHT22;30245;51.966;6.292;2022-07-23T10:42:36;29.40;40.40
44537;DHT22;30245;51.966;6.292;2022-07-23T10:47:48;29.50;40.00
44537;DHT22;30245;51.966;6.292;2022-07-23T10:50:29;29.70;39.90
44537;DHT22;30245;51.966;6.292;2022-07-23T10:57:58;30.20;39.10
44537;DHT22;30245;51.966;6.292;2022-07-23T11:00:27;30.30;38.90
44537;DHT22;30245;51.966;6.292;2022-07-23T11:02:59;30.30;38.90
44537;DHT22;30245;51.966;6.292;2022-07-23T11:05:40;30.40;39.10
44537;DHT22;30245;51.966;6.292;2022-07-23T11:10:42;30.60;38.80
44537;DHT22;30245;51.966;6.292;2022-07-23T11:13:27;30.60;38.30
44537;DHT22;30245;51.966;6.292;2022-07-23T11:34:46;31.50;37.20
44537;DHT22;30245;51.966;6.292;2022-07-23T11:40:08;31.70;37.00
44537;DHT22;30245;51.966;6.292;2022-07-23T11:42:35;31.90;36.60
44537;DHT22;30245;51.966;6.292;2022-07-23T11:45:02;32.20;36.50
44537;DHT22;30245;51.966;6.292;2022-07-23T11:47:28;32.40;36.70
44537;DHT22;30245;51.966;6.292;2022-07-23T11:49:58;32.50;36.00
44537;DHT22;30245;51.966;6.292;2022-07-23T11:52:25;32.80;36.10
44537;DHT22;30245;51.966;6.292;2022-07-23T11:55:06;33.00;35.40
44537;DHT22;30245;51.966;6.292;2022-07-23T11:57:37;33.10;35.20
44537;DHT22;30245;51.966;6.292;2022-07-23T12:00:18;33.30;35.00
44537;DHT22;30245;51.966;6.292;2022-07-23T12:02:46;33.40;35.10
44537;DHT22;30245;51.966;6.292;2022-07-23T12:05:18;33.50;34.80
44537;DHT22;30245;51.966;6.292;2022-07-23T12:07:45;33.60;34.40
44537;DHT22;30245;51.966;6.292;2022-07-23T12:10:29;33.70;34.60
44537;DHT22;30245;51.966;6.292;2022-07-23T12:12:58;33.70;34.40
44537;DHT22;30245;51.966;6.292;2022-07-23T12:15:25;33.80;34.50
44537;DHT22;30245;51.966;6.292;2022-07-23T12:17:52;33.80;34.40
44537;DHT22;30245;51.966;6.292;2022-07-23T12:20:23;33.80;34.30
44537;DHT22;30245;51.966;6.292;2022-07-23T12:22:51;33.80;34.40
44537;DHT22;30245;51.966;6.292;2022-07-23T12:25:20;33.90;34.10
44537;DHT22;30245;51.966;6.292;2022-07-23T12:27:57;33.90;34.10
44537;DHT22;30245;51.966;6.292;2022-07-23T12:30:31;34.00;34.10
44537;DHT22;30245;51.966;6.292;2022-07-23T12:32:58;34.00;34.00
44537;DHT22;30245;51.966;6.292;2022-07-23T12:35:31;34.10;33.80
44537;DHT22;30245;51.966;6.292;2022-07-23T12:38:02;34.00;33.80
44537;DHT22;30245;51.966;6.292;2022-07-23T12:43:24;34.00;33.50
44537;DHT22;30245;51.966;6.292;2022-07-23T12:48:21;33.90;33.70
44537;DHT22;30245;51.966;6.292;2022-07-23T12:56:01;34.00;33.70
44537;DHT22;30245;51.966;6.292;2022-07-23T13:06:24;34.20;33.50
44537;DHT22;30245;51.966;6.292;2022-07-23T13:08:49;34.40;33.40
44537;DHT22;30245;51.966;6.292;2022-07-23T13:11:15;34.40;33.00
44537;DHT22;30245;51.966;6.292;2022-07-23T13:13:41;34.50;32.90
44537;DHT22;30245;51.966;6.292;2022-07-23T13:16:07;34.60;32.80
44537;DHT22;30245;51.966;6.292;2022-07-23T13:18:33;34.60;32.50
44537;DHT22;30245;51.966;6.292;2022-07-23T13:20:59;34.60;32.80
44537;DHT22;30245;51.966;6.292;2022-07-23T13:23:25;34.50;32.60
44537;DHT22;30245;51.966;6.292;2022-07-23T13:25:51;34.50;32.80
44537;DHT22;30245;51.966;6.292;2022-07-23T13:28:18;34.40;32.80
44537;DHT22;30245;51.966;6.292;2022-07-23T13:30:45;34.40;32.80
44537;DHT22;30245;51.966;6.292;2022-07-23T13:33:13;34.50;32.70
44537;DHT22;30245;51.966;6.292;2022-07-23T13:35:38;34.40;32.70
44537;DHT22;30245;51.966;6.292;2022-07-23T13:38:05;34.30;32.50
44537;DHT22;30245;51.966;6.292;2022-07-23T13:40:35;34.30;31.90
44537;DHT22;30245;51.966;6.292;2022-07-23T13:43:01;34.40;32.00
44537;DHT22;30245;51.966;6.292;2022-07-23T13:45:26;34.70;32.10
44537;DHT22;30245;51.966;6.292;2022-07-23T13:47:52;35.10;31.70
44537;DHT22;30245;51.966;6.292;2022-07-23T13:50:18;35.20;31.50
44537;DHT22;30245;51.966;6.292;2022-07-23T13:52:44;35.10;31.50
44537;DHT22;30245;51.966;6.292;2022-07-23T13:55:10;35.00;31.60
44537;DHT22;30245;51.966;6.292;2022-07-23T13:57:36;34.80;31.70
44537;DHT22;30245;51.966;6.292;2022-07-23T14:00:05;34.70;32.00
44537;DHT22;30245;51.966;6.292;2022-07-23T14:02:32;34.80;32.00
44537;DHT22;30245;51.966;6.292;2022-07-23T14:04:58;35.10;31.90
44537;DHT22;30245;51.966;6.292;2022-07-23T14:07:23;35.10;31.70
44537;DHT22;30245;51.966;6.292;2022-07-23T14:09:49;35.00;31.60
44537;DHT22;30245;51.966;6.292;2022-07-23T14:12:15;34.80;31.70
44537;DHT22;30245;51.966;6.292;2022-07-23T14:14:40;34.90;31.80
44537;DHT22;30245;51.966;6.292;2022-07-23T14:17:07;34.90;31.60
44537;DHT22;30245;51.966;6.292;2022-07-23T14:19:33;35.00;31.50
44537;DHT22;30245;51.966;6.292;2022-07-23T14:21:59;35.00;31.40
44537;DHT22;30245;51.966;6.292;2022-07-23T14:24:25;35.00;31.50
44537;DHT22;30245;51.966;6.292;2022-07-23T14:26:50;35.30;31.30
44537;DHT22;30245;51.966;6.292;2022-07-23T14:29:16;35.70;30.70
44537;DHT22;30245;51.966;6.292;2022-07-23T14:31:42;35.60;31.20
44537;DHT22;30245;51.966;6.292;2022-07-23T14:34:07;35.60;30.60
44537;DHT22;30245;51.966;6.292;2022-07-23T14:36:33;35.70;30.30
44537;DHT22;30245;51.966;6.292;2022-07-23T14:38:59;36.00;30.30
44537;DHT22;30245;51.966;6.292;2022-07-23T14:41:25;36.30;30.10
44537;DHT22;30245;51.966;6.292;2022-07-23T14:43:51;36.50;30.00
44537;DHT22;30245;51.966;6.292;2022-07-23T14:46:16;36.80;29.80
44537;DHT22;30245;51.966;6.292;2022-07-23T14:48:42;36.70;29.80
44537;DHT22;30245;51.966;6.292;2022-07-23T14:51:07;36.50;29.90
44537;DHT22;30245;51.966;6.292;2022-07-23T14:53:33;36.30;30.00
44537;DHT22;30245;51.966;6.292;2022-07-23T14:55:59;36.10;30.10
44537;DHT22;30245;51.966;6.292;2022-07-23T14:58:24;35.90;30.30
44537;DHT22;30245;51.966;6.292;2022-07-23T15:00:51;36.00;30.50
44537;DHT22;30245;51.966;6.292;2022-07-23T15:03:17;35.80;30.40
44537;DHT22;30245;51.966;6.292;2022-07-23T15:05:43;35.70;30.50
44537;DHT22;30245;51.966;6.292;2022-07-23T15:08:09;35.60;30.60
44537;DHT22;30245;51.966;6.292;2022-07-23T15:10:34;35.90;30.60
44537;DHT22;30245;51.966;6.292;2022-07-23T15:13:00;35.90;30.50
44537;DHT22;30245;51.966;6.292;2022-07-23T15:15:26;35.70;30.70
44537;DHT22;30245;51.966;6.292;2022-07-23T15:17:51;35.60;30.60
44537;DHT22;30245;51.966;6.292;2022-07-23T15:20:17;36.00;30.40
44537;DHT22;30245;51.966;6.292;2022-07-23T15:22:43;36.40;30.00
44537;DHT22;30245;51.966;6.292;2022-07-23T15:25:10;36.80;29.70
44537;DHT22;30245;51.966;6.292;2022-07-23T15:27:36;37.00;29.40
44537;DHT22;30245;51.966;6.292;2022-07-23T15:30:03;37.10;29.30
44537;DHT22;30245;51.966;6.292;2022-07-23T15:32:29;37.30;29.20
44537;DHT22;30245;51.966;6.292;2022-07-23T15:34:55;37.20;29.20
44537;DHT22;30245;51.966;6.292;2022-07-23T15:37:21;37.40;29.20
44537;DHT22;30245;51.966;6.292;2022-07-23T15:39:48;37.30;29.10
44537;DHT22;30245;51.966;6.292;2022-07-23T15:42:14;36.90;29.30
44537;DHT22;30245;51.966;6.292;2022-07-23T15:44:40;36.60;29.70
44537;DHT22;30245;51.966;6.292;2022-07-23T15:47:11;36.20;29.70
44537;DHT22;30245;51.966;6.292;2022-07-23T15:49:37;36.10;30.00
44537;DHT22;30245;51.966;6.292;2022-07-23T15:52:03;36.30;29.80
44537;DHT22;30245;51.966;6.292;2022-07-23T15:54:29;36.60;29.60
44537;DHT22;30245;51.966;6.292;2022-07-23T15:56:54;36.50;29.60
44537;DHT22;30245;51.966;6.292;2022-07-23T15:59:20;36.40;29.70
44537;DHT22;30245;51.966;6.292;2022-07-23T16:01:46;36.20;29.70
44537;DHT22;30245;51.966;6.292;2022-07-23T16:04:11;36.00;29.80
44537;DHT22;30245;51.966;6.292;2022-07-23T16:06:37;35.70;30.00
44537;DHT22;30245;51.966;6.292;2022-07-23T16:09:03;35.50;30.20
44537;DHT22;30245;51.966;6.292;2022-07-23T16:11:29;35.40;30.40
44537;DHT22;30245;51.966;6.292;2022-07-23T16:13:54;35.70;30.20
44537;DHT22;30245;51.966;6.292;2022-07-23T16:16:20;36.10;30.00
44537;DHT22;30245;51.966;6.292;2022-07-23T16:18:47;36.40;29.70
44537;DHT22;30245;51.966;6.292;2022-07-23T16:21:16;36.60;29.60
44537;DHT22;30245;51.966;6.292;2022-07-23T16:23:43;36.50;29.70
44537;DHT22;30245;51.966;6.292;2022-07-23T16:26:09;36.30;29.80
44537;DHT22;30245;51.966;6.292;2022-07-23T16:28:34;36.00;29.80
44537;DHT22;30245;51.966;6.292;2022-07-23T16:31:00;35.90;30.00
44537;DHT22;30245;51.966;6.292;2022-07-23T16:33:26;35.90;30.10
44537;DHT22;30245;51.966;6.292;2022-07-23T16:35:51;35.80;30.00
44537;DHT22;30245;51.966;6.292;2022-07-23T16:38:17;35.50;30.10
44537;DHT22;30245;51.966;6.292;2022-07-23T16:40:43;35.30;30.30
44537;DHT22;30245;51.966;6.292;2022-07-23T16:43:08;35.30;30.30